createdAt,value
2022-12-13T00:02:16.745Z,11.80
2022-12-13T00:04:49.279Z,12.47
2022-12-13T00:07:22.044Z,11.93
2022-12-13T00:09:52.119Z,12.53
2022-12-13T00:12:22.248Z,11.93
2022-12-13T00:14:52.639Z,13.90
2022-12-13T00:17:23.410Z,13.77
2022-12-13T00:19:53.686Z,13.00
2022-12-13T00:22:26.616Z,12.07
2022-12-13T00:24:58.274Z,12.27
2022-12-13T00:27:28.547Z,12.30
2022-12-13T00:29:58.647Z,12.47
2022-12-13T00:32:28.815Z,14.90
2022-12-13T00:34:58.866Z,13.23
2022-12-13T00:37:31.572Z,13.17
2022-12-13T00:40:04.029Z,13.27
2022-12-13T00:42:34.184Z,15.13
2022-12-13T00:45:04.628Z,12.63
2022-12-13T00:47:34.761Z,14.20
2022-12-13T00:50:04.822Z,16.40
2022-12-13T00:52:37.851Z,15.57
2022-12-13T00:55:09.610Z,13.67
2022-12-13T00:57:40.054Z,15.77
2022-12-13T01:00:14.776Z,13.87
2022-12-13T01:02:44.926Z,16.37
2022-12-13T01:05:28.324Z,14.87
2022-12-13T01:08:09.424Z,14.63
2022-12-13T01:10:39.559Z,14.67
2022-12-13T01:13:09.673Z,14.50
2022-12-13T01:15:44.802Z,15.23
2022-12-13T01:18:18.277Z,14.60
2022-12-13T01:21:01.991Z,15.23
2022-12-13T01:23:35.801Z,15.40
2022-12-13T01:26:07.859Z,16.13
2022-12-13T01:28:38.835Z,17.13
2022-12-13T01:31:12.065Z,16.87
2022-12-13T01:33:43.209Z,17.73
2022-12-13T01:36:17.504Z,15.73
2022-12-13T01:38:51.369Z,16.60
2022-12-13T01:41:29.159Z,18.10
2022-12-13T01:44:03.829Z,17.47
2022-12-13T01:46:36.118Z,21.80
2022-12-13T01:49:19.569Z,21.60
2022-12-13T01:51:56.869Z,22.87
2022-12-13T01:54:39.182Z,22.60
2022-12-13T01:57:23.090Z,23.33
2022-12-13T01:59:56.725Z,23.10
2022-12-13T02:02:27.277Z,22.43
2022-12-13T02:05:08.701Z,22.00
2022-12-13T02:07:41.143Z,21.53
2022-12-13T02:10:14.854Z,22.03
2022-12-13T02:12:45.841Z,22.47
2022-12-13T02:15:20.368Z,22.53
2022-12-13T02:18:20.111Z,23.20
2022-12-13T02:21:35.984Z,22.70
2022-12-13T02:24:55.340Z,20.33
2022-12-13T02:28:03.378Z,21.97
2022-12-13T02:31:02.884Z,22.70
2022-12-13T02:33:53.462Z,23.50
2022-12-13T02:36:35.968Z,23.87
2022-12-13T02:39:16.576Z,23.57
2022-12-13T02:42:08.139Z,22.93
2022-12-13T02:44:58.348Z,23.67
2022-12-13T02:47:35.602Z,24.03
2022-12-13T02:50:11.592Z,23.00
2022-12-13T02:52:46.719Z,23.67
2022-12-13T02:55:21.941Z,24.47
2022-12-13T02:57:55.496Z,24.70
2022-12-13T03:00:50.478Z,24.97
2022-12-13T03:03:46.202Z,24.20
2022-12-13T03:06:33.723Z,25.30
2022-12-13T03:09:27.183Z,26.67
2022-12-13T03:12:29.909Z,27.07
2022-12-13T03:15:10.593Z,26.80
2022-12-13T03:17:48.957Z,26.20
2022-12-13T03:20:28.018Z,25.97
2022-12-13T03:23:00.441Z,25.47
2022-12-13T03:25:34.702Z,24.73
2022-12-13T03:28:05.380Z,27.83
2022-12-13T03:30:36.642Z,20.67
2022-12-13T03:33:07.150Z,19.27
2022-12-13T03:35:44.720Z,19.80
2022-12-13T03:38:23.045Z,20.57
2022-12-13T03:41:00.849Z,19.67
2022-12-13T03:43:32.236Z,17.93
2022-12-13T03:46:02.354Z,18.00
2022-12-13T03:48:32.543Z,18.27
2022-12-13T03:51:05.406Z,19.47
2022-12-13T03:53:38.719Z,19.67
2022-12-13T03:56:10.173Z,20.67
2022-12-13T03:58:42.191Z,17.70
2022-12-13T04:01:17.579Z,18.10
2022-12-13T04:03:49.978Z,18.00
2022-12-13T04:06:24.676Z,18.13
2022-12-13T04:08:57.566Z,18.70
2022-12-13T04:11:42.377Z,18.77
2022-12-13T04:14:21.867Z,18.53
2022-12-13T04:16:53.858Z,19.10
2022-12-13T04:19:24.270Z,18.10
2022-12-13T04:21:57.503Z,18.40
2022-12-13T04:24:31.328Z,19.37
2022-12-13T04:27:03.257Z,17.47
2022-12-13T04:29:34.976Z,19.60
2022-12-13T04:32:26.653Z,19.03
2022-12-13T04:35:00.764Z,16.83
2022-12-13T04:37:34.978Z,17.63
2022-12-13T04:40:05.262Z,19.00
2022-12-13T04:42:35.632Z,18.27
2022-12-13T04:45:06.537Z,18.33
2022-12-13T04:47:36.829Z,19.37
2022-12-13T04:50:08.419Z,18.80
2022-12-13T04:52:41.619Z,19.37
2022-12-13T04:55:12.733Z,16.27
2022-12-13T04:57:43.589Z,19.03
2022-12-13T05:00:17.169Z,16.57
2022-12-13T05:02:47.531Z,17.27
2022-12-13T05:05:18.233Z,16.93
2022-12-13T05:07:51.363Z,17.17
2022-12-13T05:10:34.107Z,16.60
2022-12-13T05:13:08.188Z,16.70
2022-12-13T05:15:38.394Z,17.23
2022-12-13T05:18:11.107Z,16.40
2022-12-13T05:20:42.391Z,18.23
2022-12-13T05:23:15.225Z,16.90
2022-12-13T05:25:54.408Z,19.20
2022-12-13T05:28:34.410Z,17.90
2022-12-13T05:31:22.642Z,17.23
2022-12-13T05:33:54.535Z,18.43
2022-12-13T05:36:33.009Z,17.17
2022-12-13T05:39:05.854Z,18.37
2022-12-13T05:42:01.995Z,24.50
2022-12-13T05:44:36.467Z,24.27
2022-12-13T05:47:06.684Z,24.60
2022-12-13T05:49:39.710Z,22.53
2022-12-13T05:52:10.001Z,22.57
2022-12-13T05:54:43.116Z,23.07
2022-12-13T05:57:13.626Z,23.07
2022-12-13T05:59:44.068Z,21.83
2022-12-13T06:02:19.759Z,20.83
2022-12-13T06:04:51.601Z,22.33
2022-12-13T06:07:21.891Z,22.43
2022-12-13T06:10:10.081Z,22.67
2022-12-13T06:12:43.675Z,22.83
2022-12-13T06:15:22.333Z,22.63
2022-12-13T06:17:53.145Z,23.30
2022-12-13T06:20:24.756Z,24.27
2022-12-13T06:22:55.373Z,24.13
2022-12-13T06:25:30.916Z,22.50
2022-12-13T06:28:02.299Z,24.20
2022-12-13T06:30:33.321Z,22.60
2022-12-13T06:33:03.500Z,22.73
2022-12-13T06:35:38.049Z,23.73
2022-12-13T06:38:12.358Z,23.73
2022-12-13T06:40:45.182Z,23.67
2022-12-13T06:43:15.801Z,22.53
2022-12-13T06:45:46.021Z,21.43
2022-12-13T06:48:20.022Z,22.37
2022-12-13T06:50:51.600Z,23.03
2022-12-13T06:53:21.705Z,18.67
2022-12-13T06:55:54.491Z,19.67
2022-12-13T06:58:25.111Z,17.87
2022-12-13T07:01:05.184Z,16.30
2022-12-13T07:03:36.247Z,17.83
2022-12-13T07:06:11.030Z,17.67
2022-12-13T07:08:41.156Z,17.30
2022-12-13T07:11:18.484Z,16.53
2022-12-13T07:13:48.905Z,17.70
2022-12-13T07:16:19.206Z,18.63
2022-12-13T07:18:49.443Z,18.57
2022-12-13T07:21:21.913Z,17.20
2022-12-13T07:23:55.764Z,16.90
2022-12-13T07:26:28.758Z,18.57
2022-12-13T07:28:58.895Z,16.10
2022-12-13T07:31:29.531Z,18.00
2022-12-13T07:33:59.667Z,17.43
2022-12-13T07:36:29.787Z,18.33
2022-12-13T07:39:01.491Z,18.03
2022-12-13T07:41:34.265Z,16.20
2022-12-13T07:44:05.525Z,18.00
2022-12-13T07:46:35.728Z,17.73
2022-12-13T07:49:07.079Z,17.73
2022-12-13T07:51:37.744Z,16.70
2022-12-13T07:54:09.477Z,19.47
2022-12-13T07:56:42.225Z,18.87
2022-12-13T07:59:14.936Z,17.23
2022-12-13T08:01:45.255Z,18.70
2022-12-13T08:04:15.434Z,19.93
2022-12-13T08:06:45.624Z,16.47
2022-12-13T08:09:16.262Z,16.63
2022-12-13T08:11:48.938Z,17.73
2022-12-13T08:14:20.102Z,16.20
2022-12-13T08:16:50.449Z,16.33
2022-12-13T08:19:22.958Z,13.97
2022-12-13T08:21:56.156Z,14.73
2022-12-13T08:24:28.474Z,13.97
2022-12-13T08:27:05.715Z,13.83
2022-12-13T08:29:37.978Z,15.77
2022-12-13T08:32:11.838Z,15.03
2022-12-13T08:34:42.462Z,17.43
2022-12-13T08:37:12.699Z,14.40
2022-12-13T08:39:45.079Z,14.50
2022-12-13T08:42:20.584Z,14.53
2022-12-13T08:44:53.031Z,12.43
2022-12-13T08:47:26.786Z,13.53
2022-12-13T08:50:03.962Z,14.27
2022-12-13T08:52:40.257Z,14.20
2022-12-13T08:55:13.151Z,14.00
2022-12-13T08:57:47.396Z,15.20
2022-12-13T09:00:21.109Z,14.37
2022-12-13T09:02:51.496Z,14.10
2022-12-13T09:05:33.764Z,13.57
2022-12-13T09:08:24.556Z,12.47
2022-12-13T09:11:11.527Z,12.60
2022-12-13T09:14:01.238Z,13.90
2022-12-13T09:16:35.866Z,14.30
2022-12-13T09:19:25.360Z,14.03
2022-12-13T09:22:02.487Z,13.27
2022-12-13T09:24:35.886Z,12.93
2022-12-13T09:27:09.787Z,13.17
2022-12-13T09:29:42.949Z,12.97
2022-12-13T09:32:13.078Z,11.93
2022-12-13T09:34:43.585Z,13.23
2022-12-13T09:37:22.924Z,13.17
2022-12-13T09:39:55.980Z,12.73
2022-12-13T09:42:31.260Z,13.93
2022-12-13T09:45:22.586Z,12.67
2022-12-13T09:48:07.205Z,14.23
2022-12-13T09:50:51.560Z,13.20
2022-12-13T09:53:34.045Z,12.43
2022-12-13T09:56:10.325Z,13.73
2022-12-13T09:58:43.106Z,14.43
2022-12-13T10:01:23.370Z,11.63
2022-12-13T10:03:56.922Z,12.00
2022-12-13T10:06:31.602Z,12.30
2022-12-13T10:09:04.764Z,11.93
2022-12-13T10:11:35.380Z,11.83
2022-12-13T10:14:15.680Z,11.67
2022-12-13T10:16:54.553Z,10.30
2022-12-13T10:19:32.901Z,11.93
2022-12-13T10:22:07.853Z,10.67
2022-12-13T10:24:54.299Z,10.77
2022-12-13T10:27:32.731Z,11.50
2022-12-13T10:30:14.622Z,9.97
2022-12-13T10:32:57.747Z,10.57
2022-12-13T10:35:31.977Z,12.63
2022-12-13T10:38:05.742Z,10.47
2022-12-13T10:40:38.248Z,9.50
2022-12-13T10:43:14.005Z,10.90
2022-12-13T10:45:45.147Z,10.37
2022-12-13T10:48:30.772Z,12.00
2022-12-13T10:51:12.475Z,11.43
2022-12-13T10:53:49.611Z,11.07
2022-12-13T10:56:23.514Z,9.93
2022-12-13T10:59:17.178Z,9.13
2022-12-13T11:01:48.009Z,9.07
2022-12-13T11:04:38.113Z,9.07
2022-12-13T11:07:26.807Z,9.47
2022-12-13T11:09:57.223Z,10.40
2022-12-13T11:12:36.516Z,8.97
2022-12-13T11:15:10.865Z,9.43
2022-12-13T11:17:52.884Z,8.30
2022-12-13T11:20:31.913Z,10.20
2022-12-13T11:23:10.251Z,8.53
2022-12-13T11:25:45.931Z,9.50
2022-12-13T11:28:39.555Z,8.00
2022-12-13T11:31:21.394Z,9.03
2022-12-13T11:34:04.979Z,7.90
2022-12-13T11:36:53.683Z,8.60
2022-12-13T11:39:33.763Z,8.27
2022-12-13T11:42:20.472Z,8.93
2022-12-13T11:45:06.979Z,7.90
2022-12-13T11:47:49.179Z,8.47
2022-12-13T11:50:33.578Z,8.57
2022-12-13T11:53:33.858Z,7.77
2022-12-13T11:56:17.963Z,7.97
2022-12-13T11:59:03.178Z,7.33
2022-12-13T12:01:44.530Z,7.87
2022-12-13T12:04:26.549Z,7.00
2022-12-13T12:07:30.722Z,7.20
2022-12-13T12:10:07.358Z,7.83
2022-12-13T12:12:40.539Z,7.50
2022-12-13T12:15:26.635Z,8.13
2022-12-13T12:18:00.571Z,8.47
2022-12-13T12:20:47.617Z,8.80
2022-12-13T12:23:41.883Z,8.67
2022-12-13T12:26:21.231Z,8.50
2022-12-13T12:29:15.655Z,8.37
2022-12-13T12:31:59.381Z,7.40
2022-12-13T12:34:44.234Z,7.37
2022-12-13T12:37:30.253Z,7.83
2022-12-13T12:41:14.368Z,6.83
2022-12-13T12:43:37.749Z,7.43
2022-12-13T12:46:52.353Z,7.70
2022-12-13T12:50:05.934Z,6.87
2022-12-13T12:52:53.676Z,6.63
2022-12-13T12:55:39.716Z,7.53
2022-12-13T12:58:26.471Z,7.30
2022-12-13T13:01:19.474Z,7.33
2022-12-13T13:03:54.051Z,7.93
2022-12-13T13:06:38.107Z,6.77
2022-12-13T13:09:11.548Z,7.57
2022-12-13T13:11:44.880Z,7.87
2022-12-13T13:14:33.670Z,7.20
2022-12-13T13:17:48.321Z,8.10
2022-12-13T13:20:25.982Z,7.43
2022-12-13T13:23:38.663Z,7.53
2022-12-13T13:26:23.462Z,7.93
2022-12-13T13:28:48.842Z,7.97
2022-12-13T13:31:19.248Z,7.67
2022-12-13T13:33:58.478Z,8.17
2022-12-13T13:36:55.898Z,9.67
2022-12-13T13:39:59.911Z,7.73
2022-12-13T13:42:32.340Z,8.50
2022-12-13T13:45:27.401Z,10.53
2022-12-13T13:48:35.686Z,8.70
2022-12-13T13:52:23.764Z,8.17
2022-12-13T13:55:32.881Z,7.53
2022-12-13T13:59:23.773Z,8.73
2022-12-13T14:02:44.307Z,8.33
2022-12-13T14:05:58.335Z,7.67
2022-12-13T14:08:44.460Z,8.27
2022-12-13T14:11:50.939Z,8.50
2022-12-13T14:15:37.852Z,8.23
2022-12-13T14:18:56.225Z,9.67
2022-12-13T14:21:51.364Z,8.93
2022-12-13T14:24:40.297Z,8.60
2022-12-13T14:27:30.304Z,9.30
2022-12-13T14:30:02.271Z,8.67
2022-12-13T14:32:54.181Z,9.47
2022-12-13T14:35:30.975Z,8.73
2022-12-13T14:38:04.293Z,9.53
2022-12-13T14:40:47.636Z,8.80
2022-12-13T14:43:27.585Z,9.60
2022-12-13T14:46:01.577Z,9.37
2022-12-13T14:48:38.610Z,9.70
2022-12-13T14:51:29.116Z,9.67
2022-12-13T14:53:59.421Z,10.07
2022-12-13T14:56:32.660Z,9.27
2022-12-13T14:59:06.003Z,9.20
2022-12-13T15:01:38.923Z,9.90
2022-12-13T15:04:29.169Z,9.93
2022-12-13T15:07:07.225Z,10.37
2022-12-13T15:09:44.569Z,10.07
2022-12-13T15:12:24.573Z,11.40
2022-12-13T15:15:03.017Z,10.77
2022-12-13T15:17:39.285Z,10.10
2022-12-13T15:20:28.201Z,10.00
2022-12-13T15:23:06.154Z,9.87
2022-12-13T15:25:37.958Z,10.40
2022-12-13T15:28:21.486Z,11.03
2022-12-13T15:30:53.342Z,11.63
2022-12-13T15:33:33.429Z,11.33
2022-12-13T15:36:13.157Z,11.40
2022-12-13T15:38:51.547Z,11.23
2022-12-13T15:41:27.587Z,10.83
2022-12-13T15:44:05.665Z,10.50
2022-12-13T15:46:39.561Z,12.60
2022-12-13T15:49:26.915Z,12.80
2022-12-13T15:52:01.397Z,10.83
2022-12-13T15:54:31.990Z,10.77
2022-12-13T15:57:13.981Z,10.37
2022-12-13T15:59:48.215Z,10.70
2022-12-13T16:02:24.390Z,11.37
2022-12-13T16:04:55.399Z,11.27
2022-12-13T16:07:32.688Z,10.97
2022-12-13T16:10:03.347Z,10.93
2022-12-13T16:12:47.626Z,10.33
2022-12-13T16:15:28.782Z,14.57
2022-12-13T16:18:17.166Z,13.70
2022-12-13T16:20:47.371Z,11.07
2022-12-13T16:23:26.706Z,10.33
2022-12-13T16:25:57.562Z,10.23
2022-12-13T16:28:27.632Z,11.00
2022-12-13T16:31:15.047Z,10.80
2022-12-13T16:33:45.690Z,11.87
2022-12-13T16:36:15.865Z,12.70
2022-12-13T16:38:46.003Z,12.40
2022-12-13T16:41:17.153Z,13.00
2022-12-13T16:43:56.753Z,11.03
2022-12-13T16:47:15.081Z,12.40
2022-12-13T16:49:31.290Z,11.97
2022-12-13T16:52:03.003Z,13.07
2022-12-13T16:54:33.150Z,9.70
2022-12-13T16:57:03.291Z,10.83
2022-12-13T16:59:33.425Z,10.00
2022-12-13T17:02:06.282Z,11.33
2022-12-13T17:04:39.724Z,10.90
2022-12-13T17:07:09.916Z,10.33
2022-12-13T17:09:42.130Z,13.03
2022-12-13T17:12:12.341Z,12.87
2022-12-13T17:14:42.455Z,11.23
2022-12-13T17:17:17.981Z,12.00
2022-12-13T17:19:48.316Z,11.23
2022-12-13T17:22:18.419Z,13.53
2022-12-13T17:24:48.588Z,12.43
2022-12-13T17:27:18.684Z,11.27
2022-12-13T17:29:50.502Z,11.20
2022-12-13T17:32:23.171Z,12.73
2022-12-13T17:34:59.054Z,12.47
2022-12-13T17:37:29.151Z,11.97
2022-12-13T17:40:00.513Z,10.83
2022-12-13T17:42:30.587Z,11.83
2022-12-13T17:45:00.779Z,10.97
2022-12-13T17:47:33.517Z,10.10
2022-12-13T17:50:03.638Z,9.73
2022-12-13T17:52:33.812Z,9.97
2022-12-13T17:55:05.186Z,12.63
2022-12-13T17:57:36.002Z,11.83
2022-12-13T18:00:08.913Z,12.33
2022-12-13T18:02:41.912Z,10.73
2022-12-13T18:05:26.370Z,10.93
2022-12-13T18:07:56.690Z,12.17
2022-12-13T18:10:30.003Z,9.50
2022-12-13T18:13:01.094Z,9.00
2022-12-13T18:15:31.309Z,9.10
2022-12-13T18:18:12.178Z,9.50
2022-12-13T18:20:43.760Z,9.63
2022-12-13T18:23:15.197Z,9.27
2022-12-13T18:25:45.959Z,10.50
2022-12-13T18:28:19.464Z,12.33
2022-12-13T18:30:49.669Z,10.57
2022-12-13T18:33:27.205Z,10.57
2022-12-13T18:35:57.794Z,11.93
2022-12-13T18:38:36.144Z,10.83
2022-12-13T18:41:11.384Z,9.13
2022-12-13T18:43:41.438Z,8.67
2022-12-13T18:46:13.469Z,9.33
2022-12-13T18:48:46.510Z,9.67
2022-12-13T18:51:16.679Z,9.23
2022-12-13T18:53:47.351Z,9.47
2022-12-13T18:56:19.789Z,8.70
2022-12-13T18:58:50.769Z,9.83
2022-12-13T19:01:22.900Z,11.47
2022-12-13T19:03:56.463Z,8.27
2022-12-13T19:06:30.110Z,10.50
2022-12-13T19:09:01.759Z,7.63
2022-12-13T19:11:32.251Z,8.20
2022-12-13T19:14:02.775Z,8.83
2022-12-13T19:16:32.946Z,7.97
2022-12-13T19:19:07.002Z,8.30
2022-12-13T19:21:37.121Z,7.20
2022-12-13T19:24:10.969Z,14.03
2022-12-13T19:26:41.265Z,9.80
2022-12-13T19:29:11.390Z,9.50
2022-12-13T19:31:41.504Z,9.17
2022-12-13T19:34:14.217Z,10.13
2022-12-13T19:36:44.347Z,9.37
2022-12-13T19:39:15.868Z,8.20
2022-12-13T19:41:46.043Z,8.37
2022-12-13T19:44:16.174Z,9.20
2022-12-13T19:46:48.238Z,9.33
2022-12-13T19:49:23.298Z,8.73
2022-12-13T19:51:53.438Z,10.00
2022-12-13T19:54:25.022Z,10.53
2022-12-13T19:56:55.671Z,10.13
2022-12-13T19:59:28.237Z,10.90
2022-12-13T20:01:58.564Z,9.50
2022-12-13T20:04:33.977Z,11.17
2022-12-13T20:07:04.054Z,11.90
2022-12-13T20:09:34.528Z,10.70
2022-12-13T20:12:05.262Z,9.83
2022-12-13T20:14:35.339Z,9.97
2022-12-13T20:17:05.500Z,9.20
2022-12-13T20:19:38.423Z,10.33
2022-12-13T20:22:08.543Z,10.07
2022-12-13T20:24:38.685Z,9.40
2022-12-13T20:27:11.235Z,10.47
2022-12-13T20:29:42.035Z,11.77
2022-12-13T20:32:18.576Z,13.57
2022-12-13T20:34:55.147Z,12.43
2022-12-13T20:37:27.910Z,12.50
2022-12-13T20:39:58.018Z,11.00
2022-12-13T20:42:28.127Z,8.97
2022-12-13T20:44:58.280Z,8.20
2022-12-13T20:47:32.751Z,8.63
2022-12-13T20:50:09.486Z,9.40
2022-12-13T20:52:39.642Z,9.80
2022-12-13T20:55:13.819Z,8.90
2022-12-13T20:57:43.866Z,9.77
2022-12-13T21:00:16.882Z,9.93
2022-12-13T21:02:47.266Z,9.47
2022-12-13T21:05:22.262Z,8.70
2022-12-13T21:08:04.755Z,9.00
2022-12-13T21:10:34.897Z,9.67
2022-12-13T21:13:04.986Z,9.77
2022-12-13T21:15:35.096Z,8.37
2022-12-13T21:18:05.168Z,8.17
2022-12-13T21:20:38.914Z,10.40
2022-12-13T21:23:08.950Z,9.93
2022-12-13T21:25:41.932Z,8.80
2022-12-13T21:28:11.973Z,9.60
2022-12-13T21:30:42.614Z,10.00
2022-12-13T21:33:12.693Z,11.23
2022-12-13T21:35:47.702Z,8.47
2022-12-13T21:38:18.980Z,9.70
2022-12-13T21:40:49.182Z,9.30
2022-12-13T21:43:36.732Z,8.93
2022-12-13T21:46:10.136Z,11.40
2022-12-13T21:48:42.188Z,10.80
2022-12-13T21:51:18.382Z,8.53
2022-12-13T21:53:48.714Z,9.90
2022-12-13T21:56:34.766Z,9.07
2022-12-13T21:59:20.579Z,8.80
2022-12-13T22:02:06.201Z,8.50
2022-12-13T22:04:38.851Z,10.27
2022-12-13T22:07:14.199Z,8.40
2022-12-13T22:09:44.541Z,9.33
2022-12-13T22:12:24.210Z,8.53
2022-12-13T22:14:55.932Z,9.37
2022-12-13T22:17:34.617Z,8.20
2022-12-13T22:20:07.643Z,8.17
2022-12-13T22:22:42.523Z,7.80
2022-12-13T22:25:13.289Z,7.93
2022-12-13T22:27:43.506Z,7.73
2022-12-13T22:30:14.598Z,7.70
2022-12-13T22:32:44.676Z,8.73
2022-12-13T22:35:14.734Z,7.67
2022-12-13T22:37:47.408Z,6.57
2022-12-13T22:40:19.265Z,7.07
2022-12-13T22:42:49.439Z,7.93
2022-12-13T22:45:19.751Z,8.07
2022-12-13T22:47:49.915Z,7.53
2022-12-13T22:50:23.339Z,7.20
2022-12-13T22:52:56.071Z,8.30
2022-12-13T22:55:26.492Z,7.17
2022-12-13T22:57:56.795Z,7.67
2022-12-13T23:00:27.259Z,7.67
2022-12-13T23:02:57.703Z,6.77
2022-12-13T23:05:27.809Z,8.03
2022-12-13T23:08:00.434Z,7.90
2022-12-13T23:10:43.043Z,7.37
2022-12-13T23:13:16.468Z,7.87
2022-12-13T23:15:49.461Z,7.77
2022-12-13T23:18:20.024Z,7.30
2022-12-13T23:20:50.438Z,6.77
2022-12-13T23:23:23.209Z,7.40
2022-12-13T23:25:53.335Z,7.50
2022-12-13T23:28:23.498Z,6.80
2022-12-13T23:30:53.689Z,6.73
2022-12-13T23:33:23.828Z,7.03
2022-12-13T23:36:09.200Z,7.00
2022-12-13T23:38:43.447Z,8.83
2022-12-13T23:41:23.258Z,8.33
2022-12-13T23:43:56.202Z,7.23
2022-12-13T23:46:30.244Z,6.57
2022-12-13T23:49:03.555Z,6.70
2022-12-13T23:51:38.044Z,6.70
2022-12-13T23:54:15.111Z,6.27
2022-12-13T23:56:45.310Z,6.63
2022-12-13T23:59:15.582Z,6.03
